createdAt,value
2018-06-23T00:00:05.859Z,11.94
2018-06-23T00:01:05.861Z,11.94
2018-06-23T00:02:05.547Z,11.94
2018-06-23T00:03:05.944Z,11.94
2018-06-23T00:04:05.617Z,11.94
2018-06-23T00:05:07.461Z,11.88
2018-06-23T00:06:11.356Z,11.88
2018-06-23T00:07:06.021Z,11.88
2018-06-23T00:08:06.631Z,11.88
2018-06-23T00:09:06.113Z,11.81
2018-06-23T00:10:06.107Z,11.81
2018-06-23T00:11:06.268Z,11.81
2018-06-23T00:12:06.326Z,11.81
2018-06-23T00:13:06.424Z,11.81
2018-06-23T00:14:11.177Z,11.81
2018-06-23T00:15:06.925Z,11.75
2018-06-23T00:16:05.900Z,11.75
2018-06-23T00:17:05.778Z,11.75
2018-06-23T00:18:05.991Z,11.75
2018-06-23T00:19:06.122Z,11.75
2018-06-23T00:20:05.937Z,11.75
2018-06-23T00:21:05.743Z,11.69
2018-06-23T00:22:06.181Z,11.69
2018-06-23T00:23:05.858Z,11.69
2018-06-23T00:24:05.656Z,11.69
2018-06-23T00:25:05.687Z,11.62
2018-06-23T00:26:05.857Z,11.62
2018-06-23T00:27:05.877Z,11.62
2018-06-23T00:28:06.009Z,11.62
2018-06-23T00:29:06.968Z,11.62
2018-06-23T00:30:06.183Z,11.62
2018-06-23T00:31:06.482Z,11.56
2018-06-23T00:32:06.493Z,11.56
2018-06-23T00:33:05.631Z,11.56
2018-06-23T00:34:05.714Z,11.56
2018-06-23T00:35:06.897Z,11.56
2018-06-23T00:36:05.735Z,11.56
2018-06-23T00:37:06.083Z,11.56
2018-06-23T00:38:05.948Z,11.56
2018-06-23T00:39:05.704Z,11.50
2018-06-23T00:40:06.399Z,11.50
2018-06-23T00:41:06.527Z,11.50
2018-06-23T00:42:06.501Z,11.50
2018-06-23T00:43:11.354Z,11.44
2018-06-23T00:44:06.568Z,11.44
2018-06-23T00:45:06.758Z,11.44
2018-06-23T00:46:05.712Z,11.44
2018-06-23T00:47:05.940Z,11.44
2018-06-23T00:48:10.875Z,11.44
2018-06-23T00:49:05.630Z,11.38
2018-06-23T00:50:11.130Z,11.38
2018-06-23T00:51:05.860Z,11.38
2018-06-23T00:52:05.768Z,11.38
2018-06-23T00:53:05.869Z,11.38
2018-06-23T00:54:10.734Z,11.38
2018-06-23T00:55:05.968Z,11.38
2018-06-23T00:56:05.588Z,11.38
2018-06-23T00:57:06.391Z,11.38
2018-06-23T00:58:06.159Z,11.38
2018-06-23T00:59:05.701Z,11.38
2018-06-23T01:00:05.869Z,11.38
2018-06-23T01:01:05.647Z,11.38
2018-06-23T01:02:05.616Z,11.38
2018-06-23T01:03:06.110Z,11.38
2018-06-23T01:04:10.624Z,11.38
2018-06-23T01:05:06.938Z,11.38
2018-06-23T01:06:06.811Z,11.38
2018-06-23T01:07:05.610Z,11.38
2018-06-23T01:08:05.657Z,11.38
2018-06-23T01:09:06.527Z,11.38
2018-06-23T01:10:06.505Z,11.38
2018-06-23T01:11:06.015Z,11.38
2018-06-23T01:12:05.722Z,11.38
2018-06-23T01:13:06.685Z,11.44
2018-06-23T01:14:06.347Z,11.38
2018-06-23T01:15:06.149Z,11.44
2018-06-23T01:16:06.127Z,11.44
2018-06-23T01:17:06.133Z,11.38
2018-06-23T01:18:06.229Z,11.44
2018-06-23T01:19:07.011Z,11.38
2018-06-23T01:20:05.801Z,11.38
2018-06-23T01:21:05.789Z,11.38
2018-06-23T01:22:06.768Z,11.38
2018-06-23T01:23:06.179Z,11.44
2018-06-23T01:24:06.256Z,11.38
2018-06-23T01:25:06.037Z,11.38
2018-06-23T01:26:07.640Z,11.38
2018-06-23T01:27:06.499Z,11.38
2018-06-23T01:28:11.169Z,11.31
2018-06-23T01:29:05.873Z,11.31
2018-06-23T01:30:11.459Z,11.31
2018-06-23T01:31:06.347Z,11.31
2018-06-23T01:32:06.253Z,11.25
2018-06-23T01:33:05.843Z,11.25
2018-06-23T01:34:05.865Z,11.25
2018-06-23T01:35:05.887Z,11.25
2018-06-23T01:36:05.624Z,11.25
2018-06-23T01:37:06.000Z,11.19
2018-06-23T01:38:06.433Z,11.19
2018-06-23T01:39:06.620Z,11.19
2018-06-23T01:40:06.422Z,11.19
2018-06-23T01:41:06.481Z,11.19
2018-06-23T01:42:06.280Z,11.19
2018-06-23T01:43:06.513Z,11.19
2018-06-23T01:44:06.170Z,11.19
2018-06-23T01:45:06.391Z,11.12
2018-06-23T01:46:05.505Z,11.12
2018-06-23T01:47:05.478Z,11.12
2018-06-23T01:48:06.422Z,11.12
2018-06-23T01:49:06.468Z,11.12
2018-06-23T01:50:05.582Z,11.06
2018-06-23T01:51:05.910Z,11.06
2018-06-23T01:52:05.668Z,11.06
2018-06-23T01:53:05.536Z,11.06
2018-06-23T01:54:05.837Z,11.00
2018-06-23T01:55:05.997Z,11.00
2018-06-23T01:56:05.772Z,11.00
2018-06-23T01:57:05.948Z,11.00
2018-06-23T01:58:06.020Z,11.00
2018-06-23T01:59:06.262Z,11.00
2018-06-23T02:00:10.720Z,11.00
2018-06-23T02:01:07.016Z,10.94
2018-06-23T02:02:06.046Z,10.94
2018-06-23T02:03:06.439Z,10.94
2018-06-23T02:04:06.312Z,10.94
2018-06-23T02:05:06.134Z,10.94
2018-06-23T02:06:05.889Z,10.94
2018-06-23T02:07:06.029Z,10.94
2018-06-23T02:08:05.709Z,10.94
2018-06-23T02:09:05.775Z,10.94
2018-06-23T02:10:06.124Z,10.94
2018-06-23T02:11:06.007Z,10.94
2018-06-23T02:12:05.855Z,10.94
2018-06-23T02:13:06.348Z,10.94
2018-06-23T02:14:06.058Z,10.94
2018-06-23T02:15:05.864Z,10.94
2018-06-23T02:16:06.095Z,11.00
2018-06-23T02:17:06.023Z,11.00
2018-06-23T02:18:05.863Z,11.00
2018-06-23T02:19:10.700Z,11.00
2018-06-23T02:20:06.439Z,11.00
2018-06-23T02:21:05.611Z,11.00
2018-06-23T02:22:06.107Z,11.00
2018-06-23T02:23:11.183Z,11.06
2018-06-23T02:24:11.279Z,11.06
2018-06-23T02:25:05.930Z,11.06
2018-06-23T02:26:05.534Z,11.06
2018-06-23T02:27:05.595Z,11.06
2018-06-23T02:28:06.184Z,11.06
2018-06-23T02:29:06.338Z,11.06
2018-06-23T02:30:06.404Z,11.12
2018-06-23T02:31:05.620Z,11.12
2018-06-23T02:32:05.697Z,11.12
2018-06-23T02:33:05.779Z,11.12
2018-06-23T02:34:05.938Z,11.12
2018-06-23T02:35:06.008Z,11.12
2018-06-23T02:36:06.130Z,11.19
2018-06-23T02:37:06.192Z,11.19
2018-06-23T02:38:06.349Z,11.19
2018-06-23T02:39:06.588Z,11.19
2018-06-23T02:40:05.830Z,11.19
2018-06-23T02:41:05.989Z,11.19
2018-06-23T02:42:05.866Z,11.25
2018-06-23T02:43:06.424Z,11.25
2018-06-23T02:44:06.566Z,11.25
2018-06-23T02:45:06.942Z,11.25
2018-06-23T02:46:06.008Z,11.25
2018-06-23T02:47:10.814Z,11.31
2018-06-23T02:48:06.523Z,11.31
2018-06-23T02:49:05.623Z,11.31
2018-06-23T02:50:06.398Z,11.31
2018-06-23T02:51:06.289Z,11.31
2018-06-23T02:52:07.317Z,11.31
2018-06-23T02:53:06.233Z,11.31
2018-06-23T02:54:05.980Z,11.31
2018-06-23T02:55:06.044Z,11.31
2018-06-23T02:56:06.034Z,11.31
2018-06-23T02:57:05.668Z,11.38
2018-06-23T02:58:05.778Z,11.38
2018-06-23T02:59:06.613Z,11.38
2018-06-23T03:00:06.369Z,11.38
2018-06-23T03:01:05.958Z,11.38
2018-06-23T03:02:05.787Z,11.38
2018-06-23T03:03:05.624Z,11.38
2018-06-23T03:04:06.028Z,11.38
2018-06-23T03:05:05.779Z,11.44
2018-06-23T03:06:05.880Z,11.38
2018-06-23T03:07:06.116Z,11.38
2018-06-23T03:08:06.026Z,11.44
2018-06-23T03:09:11.236Z,11.44
2018-06-23T03:10:06.491Z,11.44
2018-06-23T03:11:06.238Z,11.44
2018-06-23T03:12:06.108Z,11.44
2018-06-23T03:13:05.867Z,11.44
2018-06-23T03:14:06.027Z,11.44
2018-06-23T03:15:06.401Z,11.44
2018-06-23T03:16:06.184Z,11.44
2018-06-23T03:17:11.003Z,11.44
2018-06-23T03:18:11.100Z,11.50
2018-06-23T03:19:05.856Z,11.50
2018-06-23T03:20:05.782Z,11.50
2018-06-23T03:21:06.062Z,11.50
2018-06-23T03:22:06.037Z,11.50
2018-06-23T03:23:06.190Z,11.50
2018-06-23T03:24:05.994Z,11.50
2018-06-23T03:25:06.137Z,11.50
2018-06-23T03:26:05.619Z,11.50
2018-06-23T03:27:06.613Z,11.50
2018-06-23T03:28:06.122Z,11.50
2018-06-23T03:29:05.774Z,11.56
2018-06-23T03:30:05.929Z,11.56
2018-06-23T03:31:06.645Z,11.56
2018-06-23T03:32:06.114Z,11.56
2018-06-23T03:33:05.860Z,11.56
2018-06-23T03:34:10.888Z,11.56
2018-06-23T03:35:05.543Z,11.56
2018-06-23T03:36:05.698Z,11.56
2018-06-23T03:37:05.772Z,11.56
2018-06-23T03:38:05.707Z,11.56
2018-06-23T03:39:05.794Z,11.56
2018-06-23T03:40:06.424Z,11.56
2018-06-23T03:41:06.100Z,11.56
2018-06-23T03:42:10.739Z,11.56
2018-06-23T03:43:06.419Z,11.56
2018-06-23T03:44:06.130Z,11.56
2018-06-23T03:45:06.154Z,11.56
2018-06-23T03:46:06.516Z,11.62
2018-06-23T03:47:05.871Z,11.62
2018-06-23T03:48:05.702Z,11.62
2018-06-23T03:49:05.622Z,11.62
2018-06-23T03:50:10.632Z,11.62
2018-06-23T03:51:06.262Z,11.62
2018-06-23T03:52:05.861Z,11.62
2018-06-23T03:53:06.018Z,11.62
2018-06-23T03:54:11.038Z,11.62
2018-06-23T03:55:05.697Z,11.62
2018-06-23T03:56:05.536Z,11.62
2018-06-23T03:57:06.517Z,11.62
2018-06-23T03:58:05.944Z,11.62
2018-06-23T03:59:05.660Z,11.62
2018-06-23T04:00:06.027Z,11.62
2018-06-23T04:01:06.018Z,11.62
2018-06-23T04:02:05.765Z,11.69
2018-06-23T04:03:06.174Z,11.69
2018-06-23T04:04:06.463Z,11.69
2018-06-23T04:05:05.874Z,11.69
2018-06-23T04:06:05.536Z,11.69
2018-06-23T04:07:05.692Z,11.75
2018-06-23T04:08:06.962Z,11.69
2018-06-23T04:09:10.682Z,11.75
2018-06-23T04:10:06.118Z,11.75
2018-06-23T04:11:06.354Z,11.75
2018-06-23T04:12:06.521Z,11.75
2018-06-23T04:13:06.467Z,11.81
2018-06-23T04:14:06.017Z,11.81
2018-06-23T04:15:05.938Z,11.81
2018-06-23T04:16:05.754Z,11.81
2018-06-23T04:17:05.722Z,11.81
2018-06-23T04:18:06.964Z,11.88
2018-06-23T04:19:05.956Z,11.88
2018-06-23T04:20:06.264Z,11.88
2018-06-23T04:21:05.951Z,11.88
2018-06-23T04:22:05.713Z,11.88
2018-06-23T04:23:06.343Z,11.88
2018-06-23T04:24:11.323Z,11.88
2018-06-23T04:25:06.024Z,11.94
2018-06-23T04:26:05.634Z,11.94
2018-06-23T04:27:05.696Z,11.94
2018-06-23T04:28:05.643Z,11.94
2018-06-23T04:29:05.685Z,12.00
2018-06-23T04:30:06.171Z,12.00
2018-06-23T04:31:05.856Z,12.00
2018-06-23T04:32:05.779Z,12.00
2018-06-23T04:33:05.534Z,12.00
2018-06-23T04:34:05.710Z,12.06
2018-06-23T04:35:05.527Z,12.06
2018-06-23T04:36:06.490Z,12.06
2018-06-23T04:37:05.907Z,12.12
2018-06-23T04:38:10.814Z,12.12
2018-06-23T04:39:06.340Z,12.12
2018-06-23T04:40:06.490Z,12.12
2018-06-23T04:41:05.540Z,12.19
2018-06-23T04:42:06.753Z,12.19
2018-06-23T04:43:10.665Z,12.19
2018-06-23T04:44:11.444Z,12.19
2018-06-23T04:45:06.093Z,12.19
2018-06-23T04:46:06.180Z,12.25
2018-06-23T04:47:05.988Z,12.25
2018-06-23T04:48:06.332Z,12.25
2018-06-23T04:49:05.617Z,12.25
2018-06-23T04:50:05.920Z,12.25
2018-06-23T04:51:06.089Z,12.25
2018-06-23T04:52:05.860Z,12.31
2018-06-23T04:53:05.719Z,12.31
2018-06-23T04:54:05.882Z,12.31
2018-06-23T04:55:05.776Z,12.31
2018-06-23T04:56:05.856Z,12.38
2018-06-23T04:57:05.724Z,12.38
2018-06-23T04:58:06.388Z,12.38
2018-06-23T04:59:06.187Z,12.38
2018-06-23T05:00:05.789Z,12.38
2018-06-23T05:01:05.780Z,12.31
2018-06-23T05:02:05.846Z,12.31
2018-06-23T05:03:05.861Z,12.31
2018-06-23T05:04:06.014Z,12.31
2018-06-23T05:05:06.417Z,12.31
2018-06-23T05:06:06.280Z,12.31
2018-06-23T05:07:06.110Z,12.38
2018-06-23T05:08:06.277Z,12.38
2018-06-23T05:09:06.403Z,12.38
2018-06-23T05:10:05.949Z,12.31
2018-06-23T05:11:06.786Z,12.31
2018-06-23T05:12:06.002Z,12.31
2018-06-23T05:13:06.140Z,12.31
2018-06-23T05:14:05.624Z,12.38
2018-06-23T05:15:05.687Z,12.38
2018-06-23T05:16:11.225Z,12.31
2018-06-23T05:17:06.035Z,12.38
2018-06-23T05:18:05.546Z,12.38
2018-06-23T05:19:06.710Z,12.31
2018-06-23T05:20:05.876Z,12.31
2018-06-23T05:21:06.031Z,12.38
2018-06-23T05:22:07.238Z,12.38
2018-06-23T05:23:06.086Z,12.38
2018-06-23T05:24:06.235Z,12.38
2018-06-23T05:25:07.165Z,12.38
2018-06-23T05:26:06.635Z,12.38
2018-06-23T05:27:06.356Z,12.38
2018-06-23T05:28:05.879Z,12.38
2018-06-23T05:29:05.803Z,12.44
2018-06-23T05:30:05.530Z,12.44
2018-06-23T05:31:07.408Z,12.44
2018-06-23T05:32:05.994Z,12.44
2018-06-23T05:33:05.761Z,12.44
2018-06-23T05:34:06.097Z,12.44
2018-06-23T05:35:05.986Z,12.44
2018-06-23T05:36:06.187Z,12.44
2018-06-23T05:37:05.760Z,12.44
2018-06-23T05:38:05.945Z,12.44
2018-06-23T05:39:05.554Z,12.50
2018-06-23T05:40:06.342Z,12.50
2018-06-23T05:41:07.148Z,12.50
2018-06-23T05:42:06.180Z,12.50
2018-06-23T05:43:06.051Z,12.56
2018-06-23T05:44:06.321Z,12.56
2018-06-23T05:45:06.069Z,12.56
2018-06-23T05:46:06.011Z,12.56
2018-06-23T05:47:05.929Z,12.62
2018-06-23T05:48:05.844Z,12.62
2018-06-23T05:49:05.943Z,12.62
2018-06-23T05:50:05.612Z,12.69
2018-06-23T05:51:06.082Z,12.69
2018-06-23T05:52:05.990Z,12.69
2018-06-23T05:53:05.635Z,12.75
2018-06-23T05:54:06.193Z,12.75
2018-06-23T05:55:05.942Z,12.75
2018-06-23T05:56:05.855Z,12.81
2018-06-23T05:57:11.376Z,12.88
2018-06-23T05:58:06.177Z,12.88
2018-06-23T05:59:10.617Z,12.88
2018-06-23T06:00:06.184Z,12.94
2018-06-23T06:01:06.270Z,12.94
2018-06-23T06:02:06.261Z,13.00
2018-06-23T06:03:06.234Z,13.06
2018-06-23T06:04:06.373Z,13.06
2018-06-23T06:05:06.602Z,13.12
2018-06-23T06:06:05.858Z,13.19
2018-06-23T06:07:05.861Z,13.19
2018-06-23T06:08:06.122Z,13.25
2018-06-23T06:09:06.342Z,13.25
2018-06-23T06:10:06.015Z,13.31
2018-06-23T06:11:06.524Z,13.38
2018-06-23T06:12:06.386Z,13.44
2018-06-23T06:13:05.974Z,13.44
2018-06-23T06:14:06.217Z,13.50
2018-06-23T06:15:05.947Z,13.56
2018-06-23T06:16:06.248Z,13.62
2018-06-23T06:17:05.916Z,13.75
2018-06-23T06:18:06.020Z,13.81
2018-06-23T06:19:05.991Z,13.88
2018-06-23T06:20:05.688Z,14.00
2018-06-23T06:21:05.804Z,14.06
2018-06-23T06:22:05.903Z,14.12
2018-06-23T06:23:05.861Z,14.31
2018-06-23T06:24:06.100Z,14.50
2018-06-23T06:25:06.041Z,14.69
2018-06-23T06:26:06.020Z,14.88
2018-06-23T06:27:06.066Z,15.12
2018-06-23T06:28:05.871Z,15.31
2018-06-23T06:29:06.415Z,15.44
2018-06-23T06:30:06.277Z,15.56
2018-06-23T06:31:06.096Z,15.69
2018-06-23T06:32:06.554Z,15.81
2018-06-23T06:33:07.097Z,15.81
2018-06-23T06:34:06.486Z,15.94
2018-06-23T06:35:06.591Z,16.00
2018-06-23T06:36:05.781Z,16.06
2018-06-23T06:37:06.023Z,16.12
2018-06-23T06:38:06.044Z,16.19
2018-06-23T06:39:06.325Z,16.31
2018-06-23T06:40:05.910Z,16.31
2018-06-23T06:41:07.662Z,16.38
2018-06-23T06:42:06.413Z,16.38
2018-06-23T06:43:05.850Z,16.44
2018-06-23T06:44:05.948Z,16.44
2018-06-23T06:45:06.588Z,16.50
2018-06-23T06:46:05.686Z,16.50
2018-06-23T06:47:05.952Z,16.50
2018-06-23T06:48:06.223Z,16.56
2018-06-23T06:49:05.615Z,16.56
2018-06-23T06:50:05.626Z,16.56
2018-06-23T06:51:06.563Z,16.56
2018-06-23T06:52:05.729Z,16.56
2018-06-23T06:53:05.746Z,16.50
2018-06-23T06:54:05.852Z,16.50
2018-06-23T06:55:05.934Z,16.50
2018-06-23T06:56:06.114Z,16.50
2018-06-23T06:57:06.438Z,16.50
2018-06-23T06:58:06.442Z,16.50
2018-06-23T06:59:05.923Z,16.44
2018-06-23T07:00:05.858Z,16.44
2018-06-23T07:01:06.143Z,16.44
2018-06-23T07:02:11.481Z,16.38
2018-06-23T07:03:05.835Z,16.38
2018-06-23T07:04:05.862Z,16.31
2018-06-23T07:05:10.821Z,16.31
2018-06-23T07:06:06.449Z,16.25
2018-06-23T07:07:06.178Z,16.25
2018-06-23T07:08:06.456Z,16.19
2018-06-23T07:09:06.252Z,16.19
2018-06-23T07:10:06.500Z,16.12
2018-06-23T07:11:06.022Z,16.12
2018-06-23T07:12:05.873Z,16.06
2018-06-23T07:13:05.702Z,16.06
2018-06-23T07:14:06.340Z,16.06
2018-06-23T07:15:06.221Z,16.06
2018-06-23T07:16:06.222Z,16.00
2018-06-23T07:17:06.310Z,16.00
2018-06-23T07:18:11.209Z,16.00
2018-06-23T07:19:05.546Z,15.94
2018-06-23T07:20:05.756Z,15.94
2018-06-23T07:21:05.700Z,15.88
2018-06-23T07:22:10.623Z,15.88
2018-06-23T07:23:06.531Z,15.81
2018-06-23T07:24:05.983Z,15.81
2018-06-23T07:25:06.079Z,15.75
2018-06-23T07:26:05.845Z,15.75
2018-06-23T07:27:05.772Z,15.75
2018-06-23T07:28:11.288Z,15.69
2018-06-23T07:29:05.625Z,15.69
2018-06-23T07:30:05.709Z,15.62
2018-06-23T07:31:05.886Z,15.62
2018-06-23T07:32:05.883Z,15.56
2018-06-23T07:33:05.800Z,15.50
2018-06-23T07:34:06.531Z,15.50
2018-06-23T07:35:11.175Z,15.44
2018-06-23T07:36:05.736Z,15.44
2018-06-23T07:37:05.711Z,15.44
2018-06-23T07:38:05.627Z,15.38
2018-06-23T07:39:05.863Z,15.38
2018-06-23T07:40:05.961Z,15.31
2018-06-23T07:41:05.861Z,15.31
2018-06-23T07:42:05.764Z,15.25
2018-06-23T07:43:06.299Z,15.25
2018-06-23T07:44:06.755Z,15.25
2018-06-23T07:45:05.715Z,15.25
2018-06-23T07:46:06.581Z,15.19
2018-06-23T07:47:16.295Z,15.19
2018-06-23T07:48:05.939Z,15.19
2018-06-23T07:49:05.690Z,15.19
2018-06-23T07:50:10.653Z,15.19
2018-06-23T07:51:10.706Z,15.12
2018-06-23T07:52:06.504Z,15.12
2018-06-23T07:53:05.663Z,15.12
2018-06-23T07:54:06.442Z,15.12
2018-06-23T07:55:05.567Z,15.12
2018-06-23T07:56:05.822Z,15.12
2018-06-23T07:57:06.520Z,15.06
2018-06-23T07:58:06.834Z,15.06
2018-06-23T07:59:06.758Z,15.06
2018-06-23T08:00:06.583Z,15.00
2018-06-23T08:01:05.689Z,15.00
2018-06-23T08:02:05.614Z,15.00
2018-06-23T08:03:05.462Z,15.00
2018-06-23T08:04:05.617Z,15.00
2018-06-23T08:05:05.735Z,14.94
2018-06-23T08:06:05.703Z,14.94
2018-06-23T08:07:06.337Z,14.94
2018-06-23T08:08:05.854Z,14.88
2018-06-23T08:09:06.104Z,14.88
2018-06-23T08:10:06.267Z,14.88
2018-06-23T08:11:06.038Z,14.88
2018-06-23T08:12:11.048Z,14.88
2018-06-23T08:13:05.704Z,14.81
2018-06-23T08:14:06.474Z,14.81
2018-06-23T08:15:11.358Z,14.81
2018-06-23T08:16:06.023Z,14.75
2018-06-23T08:17:06.668Z,14.75
2018-06-23T08:18:05.858Z,14.69
2018-06-23T08:19:05.863Z,14.69
2018-06-23T08:20:05.952Z,14.69
2018-06-23T08:21:06.043Z,14.62
2018-06-23T08:22:05.798Z,14.62
2018-06-23T08:23:06.557Z,14.62
2018-06-23T08:24:05.706Z,14.62
2018-06-23T08:25:05.950Z,14.56
2018-06-23T08:26:06.009Z,14.56
2018-06-23T08:27:06.020Z,14.56
2018-06-23T08:28:06.029Z,14.50
2018-06-23T08:29:06.263Z,14.50
2018-06-23T08:30:05.875Z,14.50
2018-06-23T08:31:05.553Z,14.50
2018-06-23T08:32:05.997Z,14.44
2018-06-23T08:33:06.163Z,14.44
2018-06-23T08:34:05.868Z,14.44
2018-06-23T08:35:06.419Z,14.44
2018-06-23T08:36:06.260Z,14.44
2018-06-23T08:37:06.762Z,14.38
2018-06-23T08:38:05.703Z,14.38
2018-06-23T08:39:06.332Z,14.38
2018-06-23T08:40:06.575Z,14.38
2018-06-23T08:41:06.547Z,14.38
2018-06-23T08:42:11.341Z,14.38
2018-06-23T08:43:06.018Z,14.38
2018-06-23T08:44:06.295Z,14.38
2018-06-23T08:45:06.498Z,14.38
2018-06-23T08:46:06.061Z,14.38
2018-06-23T08:47:10.780Z,14.38
2018-06-23T08:48:05.625Z,14.38
2018-06-23T08:49:06.140Z,14.44
2018-06-23T08:50:05.999Z,14.44
2018-06-23T08:51:06.274Z,14.44
2018-06-23T08:52:06.047Z,14.44
2018-06-23T08:53:05.874Z,14.44
2018-06-23T08:54:05.915Z,14.44
2018-06-23T08:55:06.528Z,14.44
2018-06-23T08:56:06.019Z,14.44
2018-06-23T08:57:05.766Z,14.50
2018-06-23T08:58:05.698Z,14.44
2018-06-23T08:59:05.772Z,14.44
2018-06-23T09:00:06.460Z,14.44
2018-06-23T09:01:05.536Z,14.44
2018-06-23T09:02:06.048Z,14.50
2018-06-23T09:03:05.941Z,14.50
2018-06-23T09:04:06.341Z,14.50
2018-06-23T09:05:06.019Z,14.50
2018-06-23T09:06:06.249Z,14.50
2018-06-23T09:07:06.227Z,14.50
2018-06-23T09:08:06.248Z,14.50
2018-06-23T09:09:06.341Z,14.50
2018-06-23T09:10:06.651Z,14.50
2018-06-23T09:11:11.431Z,14.56
2018-06-23T09:12:06.019Z,14.56
2018-06-23T09:13:06.233Z,14.56
2018-06-23T09:14:06.128Z,14.56
2018-06-23T09:15:06.007Z,14.56
2018-06-23T09:16:06.334Z,14.56
2018-06-23T09:17:06.104Z,14.56
2018-06-23T09:18:05.882Z,14.50
2018-06-23T09:19:05.785Z,14.56
2018-06-23T09:20:05.458Z,14.56
2018-06-23T09:21:05.943Z,14.56
2018-06-23T09:22:05.927Z,14.56
2018-06-23T09:23:05.774Z,14.56
2018-06-23T09:24:05.531Z,14.56
2018-06-23T09:25:06.142Z,14.56
2018-06-23T09:26:06.185Z,14.56
2018-06-23T09:27:05.709Z,14.56
2018-06-23T09:28:06.425Z,14.50
2018-06-23T09:29:06.016Z,14.56
2018-06-23T09:30:05.784Z,14.56
2018-06-23T09:31:05.613Z,14.56
2018-06-23T09:32:05.861Z,14.56
2018-06-23T09:33:05.947Z,14.56
2018-06-23T09:34:06.269Z,14.56
2018-06-23T09:35:11.063Z,14.56
2018-06-23T09:36:05.779Z,14.56
2018-06-23T09:37:05.696Z,14.56
2018-06-23T09:38:05.700Z,14.56
2018-06-23T09:39:06.327Z,14.56
2018-06-23T09:40:06.138Z,14.56
2018-06-23T09:41:06.120Z,14.56
2018-06-23T09:42:05.960Z,14.56
2018-06-23T09:43:06.028Z,14.56
2018-06-23T09:44:06.098Z,14.56
2018-06-23T09:45:06.195Z,14.62
2018-06-23T09:46:11.363Z,14.62
2018-06-23T09:47:06.566Z,14.62
2018-06-23T09:48:06.097Z,14.62
2018-06-23T09:49:06.169Z,14.56
2018-06-23T09:50:06.669Z,14.56
2018-06-23T09:51:06.358Z,14.56
2018-06-23T09:52:05.680Z,14.56
2018-06-23T09:53:06.340Z,14.62
2018-06-23T09:54:06.490Z,14.62
2018-06-23T09:55:06.361Z,14.62
2018-06-23T09:56:06.430Z,14.62
2018-06-23T09:57:11.477Z,14.62
2018-06-23T09:58:06.179Z,14.62
2018-06-23T09:59:05.778Z,14.62
2018-06-23T10:00:06.152Z,14.62
2018-06-23T10:01:06.506Z,14.62
2018-06-23T10:02:05.540Z,14.69
2018-06-23T10:03:06.489Z,14.69
2018-06-23T10:04:05.779Z,14.69
2018-06-23T10:05:11.295Z,14.69
2018-06-23T10:06:05.938Z,14.69
2018-06-23T10:07:05.782Z,14.75
2018-06-23T10:08:05.794Z,14.75
2018-06-23T10:09:06.943Z,14.75
2018-06-23T10:10:05.937Z,14.75
2018-06-23T10:11:06.531Z,14.81
2018-06-23T10:12:06.092Z,14.81
2018-06-23T10:13:05.784Z,14.81
2018-06-23T10:14:05.609Z,14.81
2018-06-23T10:15:05.927Z,14.81
2018-06-23T10:16:05.861Z,14.81
2018-06-23T10:17:05.795Z,14.81
2018-06-23T10:18:06.938Z,14.81
2018-06-23T10:19:10.777Z,14.88
2018-06-23T10:20:06.596Z,14.88
2018-06-23T10:21:06.409Z,14.88
2018-06-23T10:22:06.574Z,14.88
2018-06-23T10:23:06.605Z,14.88
2018-06-23T10:24:05.686Z,14.88
2018-06-23T10:25:05.601Z,14.88
2018-06-23T10:26:06.385Z,14.88
2018-06-23T10:27:06.020Z,14.94
2018-06-23T10:28:05.851Z,14.94
2018-06-23T10:29:06.035Z,14.94
2018-06-23T10:30:05.699Z,14.94
2018-06-23T10:31:06.209Z,14.94
2018-06-23T10:32:05.861Z,14.94
2018-06-23T10:33:05.628Z,14.94
2018-06-23T10:34:05.924Z,14.94
2018-06-23T10:35:06.023Z,14.94
2018-06-23T10:36:06.043Z,15.00
2018-06-23T10:37:05.946Z,15.00
2018-06-23T10:38:06.293Z,15.00
2018-06-23T10:39:05.635Z,15.00
2018-06-23T10:40:06.618Z,15.00
2018-06-23T10:41:05.716Z,15.00
2018-06-23T10:42:11.285Z,15.00
2018-06-23T10:43:06.014Z,15.00
2018-06-23T10:44:05.727Z,15.00
2018-06-23T10:45:05.933Z,15.06
2018-06-23T10:46:06.339Z,15.06
2018-06-23T10:47:06.269Z,15.06
2018-06-23T10:48:06.351Z,15.12
2018-06-23T10:49:06.266Z,15.12
2018-06-23T10:50:05.870Z,15.12
2018-06-23T10:51:06.086Z,15.19
2018-06-23T10:52:06.732Z,15.19
2018-06-23T10:53:06.018Z,15.25
2018-06-23T10:54:06.003Z,15.25
2018-06-23T10:55:05.958Z,15.25
2018-06-23T10:56:06.296Z,15.25
2018-06-23T10:57:06.333Z,15.31
2018-06-23T10:58:06.130Z,15.31
2018-06-23T10:59:06.241Z,15.31
2018-06-23T11:00:05.563Z,15.31
2018-06-23T11:01:11.382Z,15.38
2018-06-23T11:02:06.494Z,15.38
2018-06-23T11:03:06.220Z,15.38
2018-06-23T11:04:06.259Z,15.38
2018-06-23T11:05:06.013Z,15.38
2018-06-23T11:06:06.188Z,15.38
2018-06-23T11:07:06.106Z,15.44
2018-06-23T11:08:06.523Z,15.38
2018-06-23T11:09:06.327Z,15.44
2018-06-23T11:10:06.022Z,15.44
2018-06-23T11:11:05.818Z,15.44
2018-06-23T11:12:06.019Z,15.44
2018-06-23T11:13:10.653Z,15.44
2018-06-23T11:14:06.440Z,15.44
2018-06-23T11:15:06.024Z,15.44
2018-06-23T11:16:05.693Z,15.50
2018-06-23T11:17:06.321Z,15.50
2018-06-23T11:18:06.553Z,15.50
2018-06-23T11:19:06.422Z,15.50
2018-06-23T11:20:06.341Z,15.50
2018-06-23T11:21:06.065Z,15.50
2018-06-23T11:22:05.702Z,15.56
2018-06-23T11:23:05.967Z,15.56
2018-06-23T11:24:10.938Z,15.56
2018-06-23T11:25:05.613Z,15.56
2018-06-23T11:26:06.421Z,15.62
2018-06-23T11:27:06.430Z,15.62
2018-06-23T11:28:06.696Z,15.62
2018-06-23T11:29:06.530Z,15.62
2018-06-23T11:30:06.664Z,15.62
2018-06-23T11:31:10.671Z,15.62
2018-06-23T11:32:06.215Z,15.62
2018-06-23T11:33:10.873Z,15.62
2018-06-23T11:34:05.762Z,15.56
2018-06-23T11:35:05.730Z,15.62
2018-06-23T11:36:05.849Z,15.62
2018-06-23T11:37:07.329Z,15.62
2018-06-23T11:38:06.025Z,15.62
2018-06-23T11:39:05.700Z,15.56
2018-06-23T11:40:05.708Z,15.56
2018-06-23T11:41:05.778Z,15.56
2018-06-23T11:42:05.948Z,15.56
2018-06-23T11:43:05.904Z,15.50
2018-06-23T11:44:05.946Z,15.50
2018-06-23T11:45:05.707Z,15.44
2018-06-23T11:46:06.340Z,15.44
2018-06-23T11:47:06.030Z,15.44
2018-06-23T11:48:05.812Z,15.44
2018-06-23T11:49:06.184Z,15.38
2018-06-23T11:50:05.711Z,15.38
2018-06-23T11:51:06.262Z,15.31
2018-06-23T11:52:05.986Z,15.31
2018-06-23T11:53:06.413Z,15.31
2018-06-23T11:54:06.421Z,15.31
2018-06-23T11:55:06.097Z,15.31
2018-06-23T11:56:05.974Z,15.31
2018-06-23T11:57:06.590Z,15.31
2018-06-23T11:58:06.764Z,15.31
2018-06-23T11:59:06.481Z,15.31
2018-06-23T12:00:06.336Z,15.31
2018-06-23T12:01:06.254Z,15.31
2018-06-23T12:02:06.104Z,15.31
2018-06-23T12:03:06.554Z,15.31
2018-06-23T12:04:05.875Z,15.31
2018-06-23T12:05:05.840Z,15.31
2018-06-23T12:06:06.036Z,15.25
2018-06-23T12:07:06.106Z,15.25
2018-06-23T12:08:06.830Z,15.25
2018-06-23T12:09:06.152Z,15.25
2018-06-23T12:10:05.933Z,15.25
2018-06-23T12:11:06.590Z,15.25
2018-06-23T12:12:05.706Z,15.25
2018-06-23T12:13:05.658Z,15.25
2018-06-23T12:14:06.150Z,15.25
2018-06-23T12:15:06.563Z,15.19
2018-06-23T12:16:06.180Z,15.19
2018-06-23T12:17:06.161Z,15.19
2018-06-23T12:18:06.266Z,15.19
2018-06-23T12:19:05.859Z,15.19
2018-06-23T12:20:05.807Z,15.19
2018-06-23T12:21:06.103Z,15.25
2018-06-23T12:22:11.175Z,15.19
2018-06-23T12:23:05.940Z,15.25
2018-06-23T12:24:05.962Z,15.25
2018-06-23T12:25:11.509Z,15.25
2018-06-23T12:26:06.103Z,15.25
2018-06-23T12:27:05.846Z,15.25
2018-06-23T12:28:06.155Z,15.25
2018-06-23T12:29:06.197Z,15.25
2018-06-23T12:30:10.943Z,15.25
2018-06-23T12:31:11.142Z,15.25
2018-06-23T12:32:06.342Z,15.25
2018-06-23T12:33:06.269Z,15.19
2018-06-23T12:34:06.331Z,15.19
2018-06-23T12:35:07.232Z,15.25
2018-06-23T12:36:06.182Z,15.25
2018-06-23T12:37:05.957Z,15.19
2018-06-23T12:38:06.111Z,15.19
2018-06-23T12:39:05.820Z,15.19
2018-06-23T12:40:05.935Z,15.19
2018-06-23T12:41:05.774Z,15.19
2018-06-23T12:42:06.720Z,15.19
2018-06-23T12:43:05.929Z,15.19
2018-06-23T12:44:05.897Z,15.19
2018-06-23T12:45:10.662Z,15.19
2018-06-23T12:46:06.338Z,15.25
2018-06-23T12:47:10.850Z,15.25
2018-06-23T12:48:06.427Z,15.25
2018-06-23T12:49:06.423Z,15.25
2018-06-23T12:50:05.552Z,15.31
2018-06-23T12:51:06.587Z,15.31
2018-06-23T12:52:06.146Z,15.38